Time;durP1;ratioP1;P1;durP2;ratioP2;P2;SDS_P1;SDS_P2;PMS_P1;PMS_P2;Temp;Humidity;BMP_temperature;BMP_pressure;BME280_temperature;BME280_humidity;BME280_pressure;Samples;Min_cycle;Max_cycle;Signal;HPM_P1;HPM_P2
2023/04/02 04:52:29;;;;;;;12.85;7.15;;;;;;;;;;5070633;28;20422;-71
2023/04/02 04:54:56;;;;;;;12.52;7.15;;;;;;;;;;5073965;28;20043;-68
2023/04/02 04:57:36;;;;;;;13.45;7.68;;;;;;;;;;5068351;28;20029;-67
2023/04/02 05:00:26;;;;;;;17.08;7.65;;;;;;;;;;5068408;28;20125;-71
2023/04/02 05:03:08;;;;;;;11.98;6.68;;;;;;;;;;5068354;28;20025;-67
2023/04/02 05:05:37;;;;;;;11.75;7.38;;;;;;;;;;5068223;28;20414;-64
2023/04/02 05:08:11;;;;;;;12.85;7.95;;;;;;;;;;5068287;28;20162;-73
2023/04/02 05:10:40;;;;;;;13.52;7.57;;;;;;;;;;5066777;28;20094;-71
2023/04/02 05:13:18;;;;;;;10.98;7.18;;;;;;;;;;5064620;28;20066;-66
2023/04/02 05:15:54;;;;;;;11.73;7.45;;;;;;;;;;5063850;28;20079;-72
2023/04/02 05:18:32;;;;;;;14.48;7.35;;;;;;;;;;5066692;28;20486;-64
2023/04/02 05:20:59;;;;;;;13.60;7.85;;;;;;;;;;5066404;28;20445;-69
2023/04/02 05:23:35;;;;;;;13.93;7.45;;;;;;;;;;5066727;28;20027;-64
2023/04/02 05:26:20;;;;;;;14.45;7.63;;;;;;;;;;5054763;28;20060;-70
2023/04/02 05:28:52;;;;;;;15.52;7.85;;;;;;;;;;5044099;28;20104;-62
2023/04/02 05:31:20;;;;;;;14.75;8.38;;;;;;;;;;5046492;28;20191;-72
2023/04/02 05:33:47;;;;;;;16.33;8.55;;;;;;;;;;5046740;28;20049;-75
2023/04/02 05:36:24;;;;;;;26.75;16.38;;;;;;;;;;5046303;28;20025;-71
2023/04/02 05:38:51;;;;;;;16.95;12.82;;;;;;;;;;5046197;28;20108;-64
2023/04/02 05:41:21;;;;;;;18.10;11.68;;;;;;;;;;5046489;28;20032;-67
2023/04/02 05:43:48;;;;;;;15.57;9.95;;;;;;;;;;5047003;28;20025;-71
2023/04/02 05:46:16;;;;;;;17.02;10.25;;;;;;;;;;5041667;28;20427;-64
2023/04/02 05:48:42;;;;;;;18.95;11.52;;;;;;;;;;5036929;28;20025;-75
2023/04/02 05:51:11;;;;;;;18.67;11.15;;;;;;;;;;5045559;28;20056;-67
2023/04/02 05:53:40;;;;;;;15.73;8.48;;;;;;;;;;5047460;28;20033;-65
2023/04/02 05:56:15;;;;;;;16.00;7.72;;;;;;;;;;5043683;28;20820;-67
2023/04/02 05:58:45;;;;;;;13.90;7.55;;;;;;;;;;5046318;28;20052;-64
2023/04/02 06:01:17;;;;;;;11.82;6.90;;;;;;;;;;5042528;28;20096;-70
2023/04/02 06:03:47;;;;;;;15.73;7.93;;;;;;;;;;5024050;28;20088;-66
2023/04/02 06:06:28;;;;;;;13.80;6.85;;;;;;;;;;5030183;28;20040;-64
2023/04/02 06:09:07;;;;;;;13.17;6.77;;;;;;;;;;5030371;28;20025;-64
2023/04/02 06:11:41;;;;;;;8.98;6.40;;;;;;;;;;5030037;28;20029;-70
2023/04/02 06:14:09;;;;;;;13.07;9.95;;;;;;;;;;5032126;28;20129;-65
2023/04/02 06:16:37;;;;;;;10.30;6.22;;;;;;;;;;5032285;28;20022;-64
2023/04/02 06:19:05;;;;;;;16.48;12.77;;;;;;;;;;5021834;28;20381;-71
2023/04/02 06:21:31;;;;;;;14.13;9.23;;;;;;;;;;5029584;28;20034;-64
2023/04/02 06:23:59;;;;;;;11.02;7.30;;;;;;;;;;5032096;28;20025;-63
2023/04/02 06:26:37;;;;;;;10.15;5.28;;;;;;;;;;5021387;28;20401;-62
2023/04/02 06:29:06;;;;;;;9.85;5.25;;;;;;;;;;5032175;28;20083;-70
2023/04/02 06:31:38;;;;;;;12.38;6.00;;;;;;;;;;5029672;28;20031;-70
2023/04/02 06:34:06;;;;;;;5.43;3.55;;;;;;;;;;5031746;28;20021;-62
2023/04/02 06:36:32;;;;;;;10.27;6.35;;;;;;;;;;5032685;28;20037;-68
2023/04/02 06:39:02;;;;;;;9.40;6.05;;;;;;;;;;5033003;28;20100;-69
2023/04/02 06:41:28;;;;;;;9.73;5.25;;;;;;;;;;5031728;28;20021;-70
2023/04/02 06:44:06;;;;;;;8.93;5.18;;;;;;;;;;5032918;28;20056;-73
2023/04/02 06:46:38;;;;;;;9.73;5.43;;;;;;;;;;5032960;28;20063;-63
2023/04/02 06:49:24;;;;;;;14.63;9.75;;;;;;;;;;5032909;28;20036;-74
2023/04/02 06:51:52;;;;;;;9.00;5.80;;;;;;;;;;5031792;28;20508;-65
2023/04/02 06:54:19;;;;;;;19.73;12.23;;;;;;;;;;5032411;28;20083;-77
2023/04/02 06:56:47;;;;;;;13.27;8.45;;;;;;;;;;5031999;28;20021;-65
2023/04/02 06:59:14;;;;;;;13.15;6.55;;;;;;;;;;5018675;28;20040;-66
2023/04/02 07:01:43;;;;;;;9.30;5.97;;;;;;;;;;5015541;28;20431;-72
2023/04/02 07:04:10;;;;;;;8.20;4.80;;;;;;;;;;5017707;28;20026;-67
2023/04/02 07:06:36;;;;;;;9.48;5.18;;;;;;;;;;5012654;28;20117;-68
2023/04/02 07:09:02;;;;;;;7.22;3.90;;;;;;;;;;5015505;28;20037;-63
2023/04/02 07:11:28;;;;;;;6.75;3.78;;;;;;;;;;5030227;28;20135;-64
2023/04/02 07:13:55;;;;;;;6.07;4.05;;;;;;;;;;5029430;28;20053;-64
2023/04/02 07:16:24;;;;;;;7.15;3.90;;;;;;;;;;5032419;28;20036;-68
2023/04/02 07:18:50;;;;;;;7.93;3.53;;;;;;;;;;5032269;28;20021;-70
2023/04/02 07:21:16;;;;;;;6.65;3.13;;;;;;;;;;5031257;28;20037;-65
2023/04/02 07:23:42;;;;;;;6.85;3.30;;;;;;;;;;5031991;28;20014;-65
2023/04/02 07:26:09;;;;;;;6.35;3.50;;;;;;;;;;5031914;28;20021;-64
2023/04/02 07:28:35;;;;;;;7.65;4.07;;;;;;;;;;5031799;28;20053;-72
2023/04/02 07:31:01;;;;;;;7.65;3.17;;;;;;;;;;5030878;28;20127;-68
2023/04/02 07:33:28;;;;;;;5.45;3.30;;;;;;;;;;5030811;28;20041;-68
2023/04/02 07:35:55;;;;;;;6.13;3.08;;;;;;;;;;5030244;28;20100;-63
2023/04/02 07:38:21;;;;;;;4.78;2.60;;;;;;;;;;5030412;28;20030;-69
2023/04/02 07:40:47;;;;;;;4.68;3.45;;;;;;;;;;5020031;28;20030;-71
2023/04/02 07:43:13;;;;;;;6.80;3.78;;;;;;;;;;5030361;28;20091;-65
2023/04/02 07:45:39;;;;;;;9.40;5.68;;;;;;;;;;5018577;28;20021;-62
2023/04/02 07:48:09;;;;;;;4.68;3.75;;;;;;;;;;5017310;28;20030;-64
2023/04/02 07:50:36;;;;;;;6.28;3.05;;;;;;;;;;5027723;28;20055;-69
2023/04/02 07:53:02;;;;;;;5.18;3.30;;;;;;;;;;5028991;28;20029;-62
2023/04/02 07:55:28;;;;;;;6.72;3.10;;;;;;;;;;5030123;28;20030;-63
2023/04/02 07:57:56;;;;;;;6.10;3.40;;;;;;;;;;5030125;28;20022;-71
2023/04/02 08:00:22;;;;;;;6.90;3.35;;;;;;;;;;5030506;28;20030;-71
2023/04/02 08:02:49;;;;;;;9.15;4.13;;;;;;;;;;5029602;28;20087;-65
2023/04/02 08:05:15;;;;;;;9.48;3.58;;;;;;;;;;5030180;28;20026;-64
2023/04/02 08:07:41;;;;;;;6.57;3.75;;;;;;;;;;5029837;28;20094;-64
2023/04/02 08:10:08;;;;;;;6.47;3.92;;;;;;;;;;5030056;28;20037;-66
2023/04/02 08:12:35;;;;;;;7.75;4.45;;;;;;;;;;5027687;28;20030;-67
2023/04/02 08:15:01;;;;;;;7.93;4.55;;;;;;;;;;5031098;28;20025;-68
2023/04/02 08:17:30;;;;;;;8.48;4.40;;;;;;;;;;5030650;28;20029;-65
2023/04/02 08:19:59;;;;;;;11.07;4.57;;;;;;;;;;5014116;28;20026;-64
2023/04/02 08:22:26;;;;;;;6.68;4.10;;;;;;;;;;5030156;28;20057;-65
2023/04/02 08:24:52;;;;;;;8.63;4.78;;;;;;;;;;5029483;28;20036;-67
2023/04/02 08:27:18;;;;;;;9.70;5.07;;;;;;;;;;5030141;28;20397;-66
2023/04/02 08:29:44;;;;;;;10.43;5.13;;;;;;;;;;5013444;28;20037;-63
2023/04/02 08:32:12;;;;;;;10.32;5.00;;;;;;;;;;5027171;28;20453;-73
2023/04/02 08:34:38;;;;;;;9.90;5.05;;;;;;;;;;5029671;28;20021;-69
2023/04/02 08:37:04;;;;;;;7.30;4.90;;;;;;;;;;5028987;28;20018;-64
2023/04/02 08:39:32;;;;;;;7.00;4.65;;;;;;;;;;5017842;28;20107;-63
2023/04/02 08:42:01;;;;;;;10.95;5.32;;;;;;;;;;5019076;28;20018;-73
2023/04/02 08:44:27;;;;;;;8.30;5.03;;;;;;;;;;5020449;28;20033;-63
2023/04/02 08:47:07;;;;;;;7.95;4.85;;;;;;;;;;5018664;28;20033;-63
2023/04/02 08:49:39;;;;;;;7.60;4.55;;;;;;;;;;5027971;28;20029;-64
2023/04/02 08:52:05;;;;;;;;;;;;;;;;;;5026634;28;20569;-63
2023/04/02 08:54:36;;;;;;;7.25;4.75;;;;;;;;;;5028862;28;20008;-63
2023/04/02 08:57:28;;;;;;;7.80;4.17;;;;;;;;;;5018331;28;20351;-64
2023/04/02 09:00:09;;;;;;;7.93;4.60;;;;;;;;;;5014773;28;20038;-67
2023/04/02 09:02:45;;;;;;;6.55;4.20;;;;;;;;;;5028822;28;20091;-67
2023/04/02 09:05:17;;;;;;;13.23;4.45;;;;;;;;;;5028121;28;20022;-64
2023/04/02 09:07:44;;;;;;;7.50;4.45;;;;;;;;;;5027554;28;20037;-63
2023/04/02 09:10:31;;;;;;;7.90;4.78;;;;;;;;;;5029924;28;20022;-67
2023/04/02 09:12:59;;;;;;;8.02;4.57;;;;;;;;;;5030637;28;20192;-66
2023/04/02 09:15:28;;;;;;;8.25;4.28;;;;;;;;;;5020853;28;20444;-63
2023/04/02 09:18:00;;;;;;;7.95;4.68;;;;;;;;;;5020399;28;20041;-67
2023/04/02 09:20:28;;;;;;;9.30;4.20;;;;;;;;;;5031402;28;20037;-66
2023/04/02 09:22:57;;;;;;;8.13;4.78;;;;;;;;;;5029936;28;20036;-67
2023/04/02 09:25:25;;;;;;;7.18;4.28;;;;;;;;;;5030255;28;20129;-62
2023/04/02 09:27:53;;;;;;;6.22;4.53;;;;;;;;;;5029000;28;20017;-63
2023/04/02 09:30:25;;;;;;;8.77;4.72;;;;;;;;;;5016004;28;20037;-64
2023/04/02 09:32:51;;;;;;;;;;;;;;;;;;5029667;28;20033;-64
2023/04/02 09:35:22;;;;;;;7.22;3.72;;;;;;;;;;5030134;28;20011;-70
2023/04/02 09:38:07;;;;;;;7.05;3.65;;;;;;;;;;5031186;28;20104;-75
2023/04/02 09:40:49;;;;;;;7.40;3.67;;;;;;;;;;5036030;28;20043;-75
2023/04/02 09:43:20;;;;;;;8.65;3.47;;;;;;;;;;5043492;28;20469;-74
2023/04/02 09:45:55;;;;;;;6.03;3.65;;;;;;;;;;5037838;28;20052;-78
2023/04/02 09:48:36;;;;;;;9.18;3.45;;;;;;;;;;5046162;28;20033;-71
2023/04/02 09:51:05;;;;;;;7.22;3.40;;;;;;;;;;5033660;28;20061;-73
2023/04/02 09:53:43;;;;;;;4.35;3.35;;;;;;;;;;5018993;28;20776;-67
2023/04/02 09:56:09;;;;;;;7.10;3.60;;;;;;;;;;5039330;28;20407;-68
2023/04/02 09:58:35;;;;;;;6.15;3.65;;;;;;;;;;5048243;28;20129;-68
2023/04/02 10:01:01;;;;;;;5.45;3.83;;;;;;;;;;5040387;28;20067;-63
2023/04/02 10:03:28;;;;;;;6.20;3.90;;;;;;;;;;5048822;28;20487;-64
2023/04/02 10:06:03;;;;;;;7.50;4.07;;;;;;;;;;5039687;28;20565;-66
2023/04/02 10:08:30;;;;;;;8.38;4.38;;;;;;;;;;5030751;28;20087;-62
2023/04/02 10:10:59;;;;;;;7.25;3.92;;;;;;;;;;5033149;28;20052;-62
2023/04/02 10:13:40;;;;;;;5.80;3.83;;;;;;;;;;5034273;28;20033;-63
2023/04/02 10:16:06;;;;;;;8.70;3.60;;;;;;;;;;5032513;28;20036;-67
2023/04/02 10:18:45;;;;;;;6.57;3.65;;;;;;;;;;5039859;28;20033;-65
2023/04/02 10:21:13;;;;;;;5.45;3.50;;;;;;;;;;5053500;28;20143;-67
2023/04/02 10:23:39;;;;;;;5.07;3.65;;;;;;;;;;5052980;28;20090;-65
2023/04/02 10:26:11;;;;;;;7.75;4.00;;;;;;;;;;5053223;28;20033;-68
2023/04/02 10:28:53;;;;;;;6.65;3.92;;;;;;;;;;5040106;28;20171;-62
2023/04/02 10:31:24;;;;;;;6.43;4.30;;;;;;;;;;5033476;28;20045;-63
2023/04/02 10:33:51;;;;;;;6.90;3.22;;;;;;;;;;5032924;28;20020;-63
2023/04/02 10:36:26;;;;;;;4.00;2.85;;;;;;;;;;5032493;28;20532;-65
2023/04/02 10:38:58;;;;;;;5.35;3.45;;;;;;;;;;5036108;28;20022;-68
2023/04/02 10:41:24;;;;;;;4.95;3.40;;;;;;;;;;5034290;28;20053;-62
2023/04/02 10:44:05;;;;;;;6.30;3.67;;;;;;;;;;5039754;28;20033;-63
2023/04/02 10:46:31;;;;;;;7.60;3.15;;;;;;;;;;5036430;28;20025;-63
2023/04/02 10:49:09;;;;;;;5.35;3.42;;;;;;;;;;5034848;28;20025;-66
2023/04/02 10:51:35;;;;;;;8.30;3.95;;;;;;;;;;5032847;28;20045;-69
2023/04/02 10:54:20;;;;;;;7.10;3.85;;;;;;;;;;5035570;28;20017;-69
2023/04/02 10:56:47;;;;;;;3.83;2.78;;;;;;;;;;5031744;28;20033;-68
2023/04/02 10:59:19;;;;;;;6.78;2.95;;;;;;;;;;5033816;28;20030;-69
2023/04/02 11:01:46;;;;;;;5.32;2.85;;;;;;;;;;5035764;28;20033;-70
2023/04/02 11:04:15;;;;;;;5.30;3.10;;;;;;;;;;5032148;28;20017;-70
2023/04/02 11:06:47;;;;;;;5.13;3.05;;;;;;;;;;5033189;28;20113;-63
2023/04/02 11:09:16;;;;;;;5.15;2.97;;;;;;;;;;5034580;28;20033;-63
2023/04/02 11:11:44;;;;;;;5.05;3.42;;;;;;;;;;5033644;28;20029;-63
2023/04/02 11:14:10;;;;;;;6.25;2.92;;;;;;;;;;5035710;28;20029;-62
2023/04/02 11:16:36;;;;;;;4.32;2.78;;;;;;;;;;5032923;28;20030;-62
2023/04/02 11:19:09;;;;;;;4.53;2.17;;;;;;;;;;5031196;28;20045;-66
2023/04/02 11:21:35;;;;;;;;;;;;;;;;;;5021232;28;20164;-63
2023/04/02 11:24:03;;;;;;;4.97;3.45;;;;;;;;;;5021983;28;20403;-62
2023/04/02 11:26:38;;;;;;;4.45;2.35;;;;;;;;;;5020898;28;20037;-66
2023/04/02 11:29:06;;;;;;;3.60;2.38;;;;;;;;;;5020039;28;20033;-62
2023/04/02 11:31:33;;;;;;;3.88;2.60;;;;;;;;;;5030662;28;20128;-70
2023/04/02 11:33:59;;;;;;;3.88;2.38;;;;;;;;;;5030996;28;20388;-63
2023/04/02 11:36:43;;;;;;;3.85;2.38;;;;;;;;;;5034886;28;20112;-69
2023/04/02 11:39:10;;;;;;;5.30;2.15;;;;;;;;;;5031964;28;20373;-67
2023/04/02 11:42:12;;;;;;;5.00;2.30;;;;;;;;;;5031439;28;20021;-63
2023/04/02 11:44:38;;;;;;;4.75;2.50;;;;;;;;;;4989247;28;20088;-62
2023/04/02 11:47:24;;;;;;;7.55;3.28;;;;;;;;;;4990147;28;20053;-72
2023/04/02 11:50:02;;;;;;;5.60;2.15;;;;;;;;;;4990066;28;20125;-70
2023/04/02 11:52:35;;;;;;;3.75;2.10;;;;;;;;;;4989682;28;20116;-66
2023/04/02 11:55:16;;;;;;;6.15;2.17;;;;;;;;;;4989638;28;20577;-62
2023/04/02 11:57:58;;;;;;;3.22;1.92;;;;;;;;;;4989860;28;20437;-64
2023/04/02 12:00:27;;;;;;;2.65;1.90;;;;;;;;;;4989614;28;20038;-64
2023/04/02 12:02:53;;;;;;;3.78;1.90;;;;;;;;;;4973493;28;20358;-64
2023/04/02 12:05:25;;;;;;;2.78;1.75;;;;;;;;;;4989661;28;20038;-65
2023/04/02 12:08:03;;;;;;;3.58;2.40;;;;;;;;;;4989385;28;20026;-65
2023/04/02 12:10:48;;;;;;;5.00;2.70;;;;;;;;;;4989293;28;20028;-65
2023/04/02 12:13:18;;;;;;;3.30;1.90;;;;;;;;;;4989156;28;20420;-64
2023/04/02 12:15:45;;;;;;;2.97;1.52;;;;;;;;;;4989671;28;20185;-65
2023/04/02 12:18:16;;;;;;;2.40;1.48;;;;;;;;;;5002920;28;20394;-65
2023/04/02 12:20:46;;;;;;;4.15;1.70;;;;;;;;;;5031076;28;20065;-65
2023/04/02 12:23:17;;;;;;;2.63;1.50;;;;;;;;;;5030998;28;20022;-66
2023/04/02 12:25:45;;;;;;;4.20;1.75;;;;;;;;;;5030659;28;20095;-69
2023/04/02 12:28:18;;;;;;;3.05;1.52;;;;;;;;;;5030821;28;20032;-70
2023/04/02 12:30:48;;;;;;;4.05;1.88;;;;;;;;;;5030727;28;20033;-66
2023/04/02 12:33:27;;;;;;;2.80;1.73;;;;;;;;;;5030820;28;20033;-65
2023/04/02 12:36:00;;;;;;;4.25;2.13;;;;;;;;;;5030703;28;20402;-71
2023/04/02 12:38:33;;;;;;;4.05;1.90;;;;;;;;;;5030864;28;20025;-64
2023/04/02 12:41:02;;;;;;;2.75;1.48;;;;;;;;;;5030782;28;20131;-69
2023/04/02 12:43:29;;;;;;;2.75;1.30;;;;;;;;;;5030791;28;20762;-67
2023/04/02 12:45:57;;;;;;;3.22;1.75;;;;;;;;;;5030819;28;20028;-64
2023/04/02 12:48:23;;;;;;;2.83;1.20;;;;;;;;;;5030701;28;20028;-65
2023/04/02 12:50:50;;;;;;;1.85;1.23;;;;;;;;;;5030262;28;20041;-64
2023/04/02 12:53:23;;;;;;;5.72;2.08;;;;;;;;;;5029803;28;20038;-66
2023/04/02 12:55:50;;;;;;;3.28;1.45;;;;;;;;;;5030347;28;20069;-67
2023/04/02 12:58:27;;;;;;;4.53;2.28;;;;;;;;;;5031432;28;20029;-69
2023/04/02 13:01:08;;;;;;;5.40;1.80;;;;;;;;;;5030971;28;20032;-63
2023/04/02 13:03:34;;;;;;;3.42;1.40;;;;;;;;;;5030578;28;20159;-63
2023/04/02 13:06:00;;;;;;;4.20;1.75;;;;;;;;;;5030597;28;20021;-63
2023/04/02 13:08:41;;;;;;;7.00;2.10;;;;;;;;;;5030429;28;20083;-72
2023/04/02 13:11:07;;;;;;;9.77;5.20;;;;;;;;;;5030248;28;20523;-68
2023/04/02 13:13:38;;;;;;;15.73;8.38;;;;;;;;;;5033337;28;20032;-67
2023/04/02 13:16:06;;;;;;;9.40;3.92;;;;;;;;;;5034480;28;20034;-63
2023/04/02 13:18:32;;;;;;;10.73;5.13;;;;;;;;;;5033650;28;20029;-63
2023/04/02 13:21:00;;;;;;;8.90;4.93;;;;;;;;;;5033760;28;20045;-66
2023/04/02 13:23:28;;;;;;;7.95;4.35;;;;;;;;;;5034057;28;20477;-62
2023/04/02 13:25:55;;;;;;;9.27;3.53;;;;;;;;;;5034078;28;20316;-62
2023/04/02 13:28:22;;;;;;;8.88;4.28;;;;;;;;;;5033800;28;20026;-63
2023/04/02 13:30:48;;;;;;;6.90;3.75;;;;;;;;;;5033859;28;20469;-68
2023/04/02 13:33:14;;;;;;;4.93;2.88;;;;;;;;;;5034035;28;20392;-62
2023/04/02 13:35:40;;;;;;;9.18;3.85;;;;;;;;;;5034047;28;20036;-68
2023/04/02 13:38:07;;;;;;;11.88;3.67;;;;;;;;;;5033980;28;20033;-66
2023/04/02 13:40:34;;;;;;;10.80;5.22;;;;;;;;;;5033668;28;20473;-63
2023/04/02 13:43:01;;;;;;;7.63;3.88;;;;;;;;;;5033944;28;20029;-62
2023/04/02 13:45:29;;;;;;;8.80;4.78;;;;;;;;;;5033693;28;20385;-62
2023/04/02 13:47:59;;;;;;;7.43;4.25;;;;;;;;;;5033965;28;20128;-68
2023/04/02 13:50:25;;;;;;;12.00;4.65;;;;;;;;;;5033602;28;20105;-65
2023/04/02 13:52:51;;;;;;;10.48;4.68;;;;;;;;;;5033681;28;20362;-67
2023/04/02 13:55:19;;;;;;;9.55;4.30;;;;;;;;;;5033348;28;20028;-62
2023/04/02 13:57:45;;;;;;;8.50;5.03;;;;;;;;;;5033695;28;20028;-62
2023/04/02 14:00:12;;;;;;;12.43;5.07;;;;;;;;;;5033774;28;20025;-68
2023/04/02 14:02:45;;;;;;;8.93;4.22;;;;;;;;;;5019880;28;20509;-68
2023/04/02 14:05:32;;;;;;;7.07;3.47;;;;;;;;;;5013807;28;20064;-62
2023/04/02 14:08:08;;;;;;;8.13;4.43;;;;;;;;;;5016295;28;20018;-64
2023/04/02 14:10:39;;;;;;;7.18;3.95;;;;;;;;;;5031658;28;20024;-62
2023/04/02 14:13:18;;;;;;;11.65;4.90;;;;;;;;;;5027913;28;20030;-62
2023/04/02 14:16:05;;;;;;;9.88;5.38;;;;;;;;;;5033063;28;20469;-61
2023/04/02 14:18:50;;;;;;;13.68;5.22;;;;;;;;;;4990798;28;20042;-67
2023/04/02 14:21:30;;;;;;;8.82;5.18;;;;;;;;;;4991248;28;20090;-64
2023/04/02 14:23:56;;;;;;;8.52;5.22;;;;;;;;;;4990715;28;20153;-62
2023/04/02 14:26:22;;;;;;;9.98;5.03;;;;;;;;;;4991152;28;20542;-62
2023/04/02 14:28:56;;;;;;;8.32;4.72;;;;;;;;;;4990511;28;20125;-64
2023/04/02 14:31:22;;;;;;;10.30;5.30;;;;;;;;;;4990941;28;20042;-67
2023/04/02 14:33:57;;;;;;;8.90;4.82;;;;;;;;;;4990948;28;20450;-62
2023/04/02 14:36:29;;;;;;;10.00;5.80;;;;;;;;;;4991022;28;20070;-69
2023/04/02 14:38:56;;;;;;;;;;;;;;;;;;4991266;28;20287;-63
2023/04/02 14:41:25;;;;;;;11.23;5.85;;;;;;;;;;4990817;28;19906;-61
2023/04/02 14:43:53;;;;;;;7.65;4.50;;;;;;;;;;4990427;28;20131;-62
2023/04/02 14:46:24;;;;;;;7.60;4.03;;;;;;;;;;4991107;28;20602;-66
2023/04/02 14:48:51;;;;;;;7.25;4.63;;;;;;;;;;4990735;28;20053;-68
2023/04/02 14:51:23;;;;;;;7.70;4.63;;;;;;;;;;4989487;28;20042;-65
2023/04/02 14:53:50;;;;;;;3.90;2.10;;;;;;;;;;4990817;28;20528;-65
2023/04/02 14:56:17;;;;;;;4.70;2.70;;;;;;;;;;5021503;28;20045;-65
2023/04/02 14:58:47;;;;;;;4.68;2.28;;;;;;;;;;5045371;28;20025;-62
2023/04/02 15:01:15;;;;;;;6.65;2.70;;;;;;;;;;5052496;28;20051;-62
2023/04/02 15:03:45;;;;;;;4.97;2.13;;;;;;;;;;5051991;28;20384;-62
2023/04/02 15:06:14;;;;;;;4.35;2.00;;;;;;;;;;5031685;28;20473;-64
2023/04/02 15:08:40;;;;;;;4.57;2.03;;;;;;;;;;5027253;28;20044;-63
2023/04/02 15:11:21;;;;;;;4.05;2.22;;;;;;;;;;5021071;28;20025;-62
2023/04/02 15:13:59;;;;;;;5.35;2.13;;;;;;;;;;5029002;28;20546;-64
2023/04/02 15:16:26;;;;;;;4.97;3.03;;;;;;;;;;5029909;28;20031;-63
2023/04/02 15:18:52;;;;;;;3.60;2.40;;;;;;;;;;5029348;28;20030;-63
2023/04/02 15:21:18;;;;;;;5.65;3.95;;;;;;;;;;5032355;28;20029;-63
2023/04/02 15:24:03;;;;;;;6.30;4.43;;;;;;;;;;5032248;28;20128;-64
2023/04/02 15:26:29;;;;;;;15.68;6.25;;;;;;;;;;5032132;28;20026;-63
2023/04/02 15:29:02;;;;;;;6.68;3.55;;;;;;;;;;5031344;28;20049;-71
2023/04/02 15:31:28;;;;;;;8.23;5.30;;;;;;;;;;5028967;28;20033;-64
2023/04/02 15:34:08;;;;;;;5.60;2.90;;;;;;;;;;5032114;28;20025;-63
2023/04/02 15:36:34;;;;;;;5.70;3.20;;;;;;;;;;5031192;28;20501;-69
2023/04/02 15:39:04;;;;;;;4.65;2.17;;;;;;;;;;5031543;28;20029;-63
2023/04/02 15:41:53;;;;;;;5.10;3.30;;;;;;;;;;5031755;28;20029;-65
2023/04/02 15:44:19;;;;;;;4.80;3.03;;;;;;;;;;5031557;28;20037;-68
2023/04/02 15:46:55;;;;;;;5.88;3.53;;;;;;;;;;5031637;28;20025;-64
2023/04/02 15:49:41;;;;;;;4.45;2.72;;;;;;;;;;5031808;28;20029;-65
2023/04/02 15:52:16;;;;;;;17.40;10.55;;;;;;;;;;5031238;28;20045;-71
2023/04/02 15:54:51;;;;;;;24.45;13.45;;;;;;;;;;5031135;28;20021;-68
2023/04/02 15:57:29;;;;;;;7.93;5.10;;;;;;;;;;5030121;28;20384;-64
2023/04/02 15:59:55;;;;;;;6.68;4.40;;;;;;;;;;5031344;28;20033;-67
2023/04/02 16:02:27;;;;;;;4.32;3.10;;;;;;;;;;5031771;28;20124;-73
2023/04/02 16:05:02;;;;;;;2.85;2.10;;;;;;;;;;5029915;28;20107;-72
2023/04/02 16:07:28;;;;;;;3.78;2.63;;;;;;;;;;5021311;28;20025;-68
2023/04/02 16:10:04;;;;;;;5.50;3.10;;;;;;;;;;5026072;28;20025;-65
2023/04/02 16:12:30;;;;;;;6.32;3.08;;;;;;;;;;5028329;28;20053;-69
2023/04/02 16:15:04;;;;;;;6.63;2.55;;;;;;;;;;5022183;28;20025;-65
2023/04/02 16:17:34;;;;;;;7.55;3.80;;;;;;;;;;5023602;28;20040;-68
2023/04/02 16:20:10;;;;;;;5.20;2.67;;;;;;;;;;5019289;28;20772;-67
2023/04/02 16:22:36;;;;;;;10.60;3.30;;;;;;;;;;5023236;28;20112;-72
2023/04/02 16:25:18;;;;;;;7.90;4.43;;;;;;;;;;5026511;28;20025;-70
2023/04/02 16:27:46;;;;;;;14.48;8.02;;;;;;;;;;5014649;28;20139;-65
2023/04/02 16:30:18;;;;;;;5.78;3.25;;;;;;;;;;5019094;28;20025;-68
2023/04/02 16:32:47;;;;;;;6.95;3.45;;;;;;;;;;5030475;28;20505;-72
2023/04/02 16:35:19;;;;;;;6.28;3.17;;;;;;;;;;5030768;28;20507;-71
2023/04/02 16:37:47;;;;;;;5.30;3.53;;;;;;;;;;5030807;28;20481;-66
2023/04/02 16:40:19;;;;;;;20.67;9.75;;;;;;;;;;5029068;28;20033;-64
2023/04/02 16:42:51;;;;;;;28.73;12.57;;;;;;;;;;5028887;28;20338;-69
2023/04/02 16:45:20;;;;;;;33.03;15.23;;;;;;;;;;5030826;28;20030;-66
2023/04/02 16:47:51;;;;;;;33.60;14.82;;;;;;;;;;5028606;28;20033;-64
2023/04/02 16:50:17;;;;;;;21.27;10.13;;;;;;;;;;5030359;28;20029;-63
2023/04/02 16:52:49;;;;;;;25.55;12.07;;;;;;;;;;5030526;28;20370;-67
2023/04/02 16:55:24;;;;;;;9.50;5.68;;;;;;;;;;5030469;28;20021;-67
2023/04/02 16:57:57;;;;;;;8.30;4.90;;;;;;;;;;5029243;28;20029;-64
2023/04/02 17:00:29;;;;;;;6.82;4.82;;;;;;;;;;5030235;28;21618;-68
2023/04/02 17:03:11;;;;;;;12.55;7.18;;;;;;;;;;5026695;28;20393;-63
2023/04/02 17:05:46;;;;;;;9.95;6.10;;;;;;;;;;5030633;28;20021;-68
2023/04/02 17:08:15;;;;;;;12.55;7.38;;;;;;;;;;5030507;28;20118;-64
2023/04/02 17:10:50;;;;;;;14.90;10.05;;;;;;;;;;5030338;28;20037;-64
2023/04/02 17:13:32;;;;;;;31.92;15.55;;;;;;;;;;5030459;28;20072;-64
2023/04/02 17:16:06;;;;;;;13.70;7.47;;;;;;;;;;5027037;28;20036;-63
2023/04/02 17:18:32;;;;;;;19.13;10.60;;;;;;;;;;5027814;28;20033;-63
2023/04/02 17:21:02;;;;;;;11.55;6.60;;;;;;;;;;5022662;28;20130;-64
2023/04/02 17:23:29;;;;;;;15.55;7.60;;;;;;;;;;5029445;28;20953;-69
2023/04/02 17:26:02;;;;;;;17.38;8.82;;;;;;;;;;5014494;28;20033;-68
2023/04/02 17:28:35;;;;;;;13.38;8.45;;;;;;;;;;5022019;28;20041;-64
2023/04/02 17:31:03;;;;;;;12.65;7.30;;;;;;;;;;5029432;28;20418;-69
2023/04/02 17:33:29;;;;;;;12.98;8.05;;;;;;;;;;5032923;28;20037;-64
2023/04/02 17:36:11;;;;;;;10.70;7.05;;;;;;;;;;5028622;28;20025;-64
2023/04/02 17:38:50;;;;;;;9.05;6.03;;;;;;;;;;5027284;28;20108;-68
2023/04/02 17:41:36;;;;;;;6.80;4.70;;;;;;;;;;5034395;28;20036;-64
2023/04/02 17:44:08;;;;;;;8.00;4.80;;;;;;;;;;5016769;28;20135;-68
2023/04/02 17:46:37;;;;;;;8.45;5.43;;;;;;;;;;5021708;28;20591;-67
2023/04/02 17:49:11;;;;;;;9.52;5.40;;;;;;;;;;5022630;28;20108;-63
2023/04/02 17:51:45;;;;;;;9.20;5.22;;;;;;;;;;5028728;28;20557;-69
2023/04/02 17:54:16;;;;;;;6.25;4.30;;;;;;;;;;5052636;28;20080;-71
2023/04/02 17:57:05;;;;;;;7.18;4.28;;;;;;;;;;5036333;28;20033;-69
2023/04/02 17:59:51;;;;;;;7.78;4.05;;;;;;;;;;5033494;28;20488;-68
2023/04/02 18:02:38;;;;;;;8.20;4.85;;;;;;;;;;5032936;28;20025;-62
2023/04/02 18:05:25;;;;;;;13.85;6.82;;;;;;;;;;5038963;28;20029;-65
2023/04/02 18:07:58;;;;;;;13.02;7.22;;;;;;;;;;5036987;28;20721;-66
2023/04/02 18:10:37;;;;;;;10.82;6.65;;;;;;;;;;5035572;28;20181;-66
2023/04/02 18:13:14;;;;;;;13.60;7.63;;;;;;;;;;5037691;28;20060;-66
2023/04/02 18:15:40;;;;;;;12.98;8.27;;;;;;;;;;5034898;28;20035;-63
2023/04/02 18:18:06;;;;;;;14.65;7.85;;;;;;;;;;5033796;28;20090;-63
2023/04/02 18:20:39;;;;;;;13.98;8.55;;;;;;;;;;5036492;28;20500;-66
2023/04/02 18:23:26;;;;;;;13.05;7.63;;;;;;;;;;5031401;28;20064;-65
2023/04/02 18:26:04;;;;;;;12.20;6.60;;;;;;;;;;5048611;28;20479;-68
2023/04/02 18:28:45;;;;;;;11.38;6.78;;;;;;;;;;5038590;28;20026;-69
2023/04/02 18:31:15;;;;;;;11.57;6.38;;;;;;;;;;5052208;28;20033;-67
2023/04/02 18:33:41;;;;;;;10.82;5.70;;;;;;;;;;5045624;28;20032;-66
2023/04/02 18:36:13;;;;;;;12.30;6.15;;;;;;;;;;5035803;28;20041;-66
2023/04/02 18:38:46;;;;;;;10.63;6.00;;;;;;;;;;5035328;28;20055;-63
2023/04/02 18:41:12;;;;;;;10.23;5.95;;;;;;;;;;5041467;28;20377;-63
2023/04/02 18:43:40;;;;;;;11.80;6.07;;;;;;;;;;5043830;28;20021;-64
2023/04/02 18:46:16;;;;;;;9.32;5.50;;;;;;;;;;5037574;28;20089;-67
2023/04/02 18:49:00;;;;;;;8.25;5.35;;;;;;;;;;5047928;28;20092;-64
2023/04/02 18:51:28;;;;;;;13.60;8.25;;;;;;;;;;5036385;28;20138;-65
2023/04/02 18:54:11;;;;;;;13.73;8.05;;;;;;;;;;5033495;28;20567;-62
2023/04/02 18:56:38;;;;;;;16.10;9.57;;;;;;;;;;5032951;28;20052;-70
2023/04/02 18:59:23;;;;;;;13.32;8.45;;;;;;;;;;5037319;28;20088;-69
2023/04/02 19:01:50;;;;;;;10.45;4.78;;;;;;;;;;5032731;28;20212;-67
2023/04/02 19:04:18;;;;;;;8.48;5.65;;;;;;;;;;5031684;28;20029;-69
2023/04/02 19:06:47;;;;;;;5.68;3.95;;;;;;;;;;5031826;28;20029;-68
2023/04/02 19:09:19;;;;;;;9.05;4.95;;;;;;;;;;5031214;28;20051;-71
2023/04/02 19:11:46;;;;;;;10.23;5.78;;;;;;;;;;5030062;28;20474;-69
2023/04/02 19:14:15;;;;;;;8.02;4.50;;;;;;;;;;5031435;28;20558;-70
2023/04/02 19:16:47;;;;;;;9.73;5.40;;;;;;;;;;5031423;28;20055;-69
2023/04/02 19:19:13;;;;;;;;;;;;;;;;;;5031546;28;20456;-69
2023/04/02 19:21:42;;;;;;;9.00;4.53;;;;;;;;;;5031050;28;19909;-68
2023/04/02 19:24:11;;;;;;;8.43;4.57;;;;;;;;;;5030941;28;20019;-68
2023/04/02 19:26:58;;;;;;;8.48;4.18;;;;;;;;;;5030935;28;20018;-66
2023/04/02 19:29:41;;;;;;;10.68;4.43;;;;;;;;;;5030973;28;20061;-68
2023/04/02 19:32:21;;;;;;;7.32;4.32;;;;;;;;;;5030958;28;20111;-67
2023/04/02 19:34:50;;;;;;;12.63;5.55;;;;;;;;;;5031316;28;20025;-69
2023/04/02 19:37:29;;;;;;;14.77;8.15;;;;;;;;;;5031351;28;20514;-66
2023/04/02 19:39:58;;;;;;;13.25;7.30;;;;;;;;;;5031399;28;20091;-69
2023/04/02 19:42:24;;;;;;;11.68;6.45;;;;;;;;;;5031240;28;20021;-68
2023/04/02 19:44:51;;;;;;;8.40;4.65;;;;;;;;;;5031205;28;20056;-67
2023/04/02 19:47:18;;;;;;;8.48;4.80;;;;;;;;;;5030817;28;20025;-68
2023/04/02 19:49:44;;;;;;;6.68;3.80;;;;;;;;;;5031365;28;20025;-69
2023/04/02 19:52:10;;;;;;;6.95;4.15;;;;;;;;;;5031041;28;20404;-70
2023/04/02 19:54:37;;;;;;;7.93;4.35;;;;;;;;;;5031175;28;20022;-67
2023/04/02 19:57:04;;;;;;;11.38;5.18;;;;;;;;;;5032194;28;20029;-70